sensor_id;sensor_type;location;lat;lon;timestamp;P1;durP1;ratioP1;P2;durP2;ratioP2
39782;SDS011;25462;51.164;17.100;2023-11-21T00:02:53;12.30;;;4.20;;
39782;SDS011;25462;51.164;17.100;2023-11-21T00:08:10;10.40;;;3.70;;
39782;SDS011;25462;51.164;17.100;2023-11-21T00:14:19;13.20;;;4.10;;
39782;SDS011;25462;51.164;17.100;2023-11-21T00:25:14;11.70;;;4.40;;
39782;SDS011;25462;51.164;17.100;2023-11-21T00:30:54;11.10;;;3.80;;
39782;SDS011;25462;51.164;17.100;2023-11-21T00:36:11;11.10;;;3.90;;
39782;SDS011;25462;51.164;17.100;2023-11-21T00:41:28;8.70;;;3.20;;
39782;SDS011;25462;51.164;17.100;2023-11-21T00:46:52;8.50;;;3.50;;
39782;SDS011;25462;51.164;17.100;2023-11-21T00:52:22;6.80;;;3.20;;
39782;SDS011;25462;51.164;17.100;2023-11-21T00:57:41;8.10;;;3.80;;
39782;SDS011;25462;51.164;17.100;2023-11-21T01:09:11;6.00;;;3.20;;
39782;SDS011;25462;51.164;17.100;2023-11-21T01:14:51;10.80;;;3.60;;
39782;SDS011;25462;51.164;17.100;2023-11-21T01:20:10;8.80;;;3.70;;
39782;SDS011;25462;51.164;17.100;2023-11-21T01:25:32;9.00;;;3.40;;
39782;SDS011;25462;51.164;17.100;2023-11-21T01:30:40;7.80;;;3.60;;
39782;SDS011;25462;51.164;17.100;2023-11-21T01:36:09;10.80;;;3.70;;
39782;SDS011;25462;51.164;17.100;2023-11-21T01:41:56;10.20;;;3.50;;
39782;SDS011;25462;51.164;17.100;2023-11-21T01:47:16;9.40;;;3.50;;
39782;SDS011;25462;51.164;17.100;2023-11-21T01:52:22;7.40;;;3.00;;
39782;SDS011;25462;51.164;17.100;2023-11-21T01:58:11;8.30;;;3.50;;
39782;SDS011;25462;51.164;17.100;2023-11-21T02:03:20;8.80;;;3.50;;
39782;SDS011;25462;51.164;17.100;2023-11-21T02:08:31;10.60;;;3.80;;
39782;SDS011;25462;51.164;17.100;2023-11-21T02:13:48;8.20;;;3.10;;
39782;SDS011;25462;51.164;17.100;2023-11-21T02:18:55;7.50;;;3.30;;
39782;SDS011;25462;51.164;17.100;2023-11-21T02:24:03;6.40;;;2.70;;
39782;SDS011;25462;51.164;17.100;2023-11-21T02:29:18;8.00;;;2.80;;
39782;SDS011;25462;51.164;17.100;2023-11-21T02:40:16;8.40;;;2.90;;
39782;SDS011;25462;51.164;17.100;2023-11-21T02:45:45;7.40;;;2.80;;
39782;SDS011;25462;51.164;17.100;2023-11-21T02:50:50;7.10;;;2.90;;
39782;SDS011;25462;51.164;17.100;2023-11-21T02:56:00;7.90;;;3.20;;
39782;SDS011;25462;51.164;17.100;2023-11-21T03:07:05;6.40;;;2.90;;
39782;SDS011;25462;51.164;17.100;2023-11-21T03:12:18;10.30;;;4.00;;
39782;SDS011;25462;51.164;17.100;2023-11-21T03:18:03;9.70;;;3.80;;
39782;SDS011;25462;51.164;17.100;2023-11-21T03:23:26;9.60;;;4.10;;
39782;SDS011;25462;51.164;17.100;2023-11-21T03:28:41;9.90;;;4.80;;
39782;SDS011;25462;51.164;17.100;2023-11-21T03:34:26;13.20;;;5.30;;
39782;SDS011;25462;51.164;17.100;2023-11-21T03:45:10;13.30;;;5.60;;
39782;SDS011;25462;51.164;17.100;2023-11-21T03:50:23;12.20;;;5.50;;
39782;SDS011;25462;51.164;17.100;2023-11-21T03:55:34;17.50;;;6.10;;
39782;SDS011;25462;51.164;17.100;2023-11-21T04:07:29;15.80;;;6.30;;
39782;SDS011;25462;51.164;17.100;2023-11-21T04:12:58;12.00;;;5.80;;
39782;SDS011;25462;51.164;17.100;2023-11-21T04:18:20;10.10;;;5.70;;
39782;SDS011;25462;51.164;17.100;2023-11-21T04:29:34;10.10;;;5.40;;
39782;SDS011;25462;51.164;17.100;2023-11-21T04:35:00;11.40;;;5.70;;
39782;SDS011;25462;51.164;17.100;2023-11-21T04:40:09;10.00;;;5.00;;
39782;SDS011;25462;51.164;17.100;2023-11-21T04:45:44;11.10;;;4.60;;
39782;SDS011;25462;51.164;17.100;2023-11-21T04:50:50;10.40;;;5.20;;
39782;SDS011;25462;51.164;17.100;2023-11-21T04:56:07;10.60;;;4.40;;
39782;SDS011;25462;51.164;17.100;2023-11-21T05:01:59;8.90;;;4.20;;
39782;SDS011;25462;51.164;17.100;2023-11-21T05:07:18;8.40;;;3.90;;
39782;SDS011;25462;51.164;17.100;2023-11-21T05:12:26;9.20;;;4.20;;
39782;SDS011;25462;51.164;17.100;2023-11-21T05:17:52;10.40;;;5.00;;
39782;SDS011;25462;51.164;17.100;2023-11-21T05:23:54;7.50;;;4.00;;
39782;SDS011;25462;51.164;17.100;2023-11-21T05:28:59;6.40;;;3.60;;
39782;SDS011;25462;51.164;17.100;2023-11-21T05:34:07;7.40;;;3.40;;
39782;SDS011;25462;51.164;17.100;2023-11-21T05:39:13;7.30;;;3.80;;
39782;SDS011;25462;51.164;17.100;2023-11-21T05:44:26;7.50;;;3.90;;
39782;SDS011;25462;51.164;17.100;2023-11-21T05:49:49;7.10;;;4.50;;
39782;SDS011;25462;51.164;17.100;2023-11-21T06:01:09;6.30;;;4.20;;
39782;SDS011;25462;51.164;17.100;2023-11-21T06:06:19;10.30;;;4.00;;
39782;SDS011;25462;51.164;17.100;2023-11-21T06:11:27;8.80;;;4.50;;
39782;SDS011;25462;51.164;17.100;2023-11-21T06:16:42;8.90;;;4.60;;
39782;SDS011;25462;51.164;17.100;2023-11-21T06:22:21;9.10;;;4.70;;
39782;SDS011;25462;51.164;17.100;2023-11-21T06:27:38;10.30;;;4.70;;
39782;SDS011;25462;51.164;17.100;2023-11-21T06:33:27;12.00;;;5.10;;
39782;SDS011;25462;51.164;17.100;2023-11-21T06:39:08;8.80;;;5.50;;
39782;SDS011;25462;51.164;17.100;2023-11-21T06:44:27;10.70;;;5.70;;
39782;SDS011;25462;51.164;17.100;2023-11-21T06:56:04;9.00;;;5.70;;
39782;SDS011;25462;51.164;17.100;2023-11-21T07:33:21;12.10;;;7.50;;
39782;SDS011;25462;51.164;17.100;2023-11-21T08:16:30;14.40;;;7.30;;
39782;SDS011;25462;51.164;17.100;2023-11-21T09:32:10;7.60;;;4.40;;
39782;SDS011;25462;51.164;17.100;2023-11-21T09:38:16;6.20;;;4.10;;
39782;SDS011;25462;51.164;17.100;2023-11-21T09:55:37;7.20;;;4.60;;
39782;SDS011;25462;51.164;17.100;2023-11-21T11:32:09;30.40;;;16.10;;
39782;SDS011;25462;51.164;17.100;2023-11-21T11:37:38;25.60;;;15.00;;
39782;SDS011;25462;51.164;17.100;2023-11-21T11:43:05;28.20;;;15.20;;
39782;SDS011;25462;51.164;17.100;2023-11-21T12:53:20;21.30;;;11.30;;
39782;SDS011;25462;51.164;17.100;2023-11-21T15:00:14;18.00;;;13.10;;
39782;SDS011;25462;51.164;17.100;2023-11-21T16:02:48;26.00;;;14.10;;
39782;SDS011;25462;51.164;17.100;2023-11-21T16:07:55;22.20;;;12.40;;
39782;SDS011;25462;51.164;17.100;2023-11-21T16:19:50;22.30;;;13.80;;
39782;SDS011;25462;51.164;17.100;2023-11-21T16:44:24;23.20;;;13.90;;
39782;SDS011;25462;51.164;17.100;2023-11-21T18:45:49;48.80;;;25.70;;
39782;SDS011;25462;51.164;17.100;2023-11-21T19:16:25;52.40;;;26.90;;
39782;SDS011;25462;51.164;17.100;2023-11-21T19:21:33;41.60;;;23.10;;
39782;SDS011;25462;51.164;17.100;2023-11-21T20:03:12;47.30;;;28.50;;
39782;SDS011;25462;51.164;17.100;2023-11-21T20:14:43;51.40;;;17.90;;
39782;SDS011;25462;51.164;17.100;2023-11-21T20:32:02;50.90;;;27.80;;
39782;SDS011;25462;51.164;17.100;2023-11-21T20:37:33;54.70;;;28.10;;
39782;SDS011;25462;51.164;17.100;2023-11-21T22:19:22;53.20;;;30.70;;
39782;SDS011;25462;51.164;17.100;2023-11-21T22:24:40;53.90;;;29.80;;
39782;SDS011;25462;51.164;17.100;2023-11-21T22:35:58;55.80;;;31.40;;
